Time;durP1;ratioP1;P1;durP2;ratioP2;P2;SDS_P1;SDS_P2;PMS_P1;PMS_P2;Temp;Humidity;BMP_temperature;BMP_pressure;BME280_temperature;BME280_humidity;BME280_pressure;Samples;Min_cycle;Max_cycle;Signal;HPM_P1;HPM_P2
2024/01/05 00:00:40;;;;;;;24.43;8.53;;;;;;;8.96;74.79;99067.06;5011960;28;20042;-78
2024/01/05 00:03:05;;;;;;;21.20;8.37;;;;;;;8.96;74.60;99061.81;5012662;28;20045;-78
2024/01/05 00:05:31;;;;;;;25.00;8.88;;;;;;;8.94;74.84;99068.84;5012521;28;20038;-78
2024/01/05 00:07:56;;;;;;;27.07;8.93;;;;;;;8.94;74.81;99064.47;5012480;28;20034;-77
2024/01/05 00:10:22;;;;;;;20.57;8.83;;;;;;;8.93;74.91;99051.38;5012306;28;20576;-78
2024/01/05 00:12:47;;;;;;;22.05;9.07;;;;;;;8.92;74.77;99060.13;4994738;28;20085;-79
2024/01/05 00:15:12;;;;;;;30.83;10.80;;;;;;;8.89;74.80;99056.66;5011531;28;20030;-78
2024/01/05 00:17:38;;;;;;;28.80;10.83;;;;;;;8.86;74.65;99051.47;5003187;28;20114;-77
2024/01/05 00:20:06;;;;;;;29.83;10.80;;;;;;;8.82;74.67;99049.81;4992435;28;20030;-78
2024/01/05 00:22:32;;;;;;;27.27;11.70;;;;;;;8.81;74.64;99053.31;5005675;28;20034;-78
2024/01/05 00:24:57;;;;;;;26.83;11.82;;;;;;;8.78;74.83;99055.13;5009992;28;20104;-78
2024/01/05 00:27:22;;;;;;;23.80;11.47;;;;;;;8.71;74.91;99047.34;4992557;28;20030;-78
2024/01/05 00:29:48;;;;;;;27.03;10.17;;;;;;;8.70;75.25;99050.88;4991947;28;20033;-78
2024/01/05 00:32:13;;;;;;;26.10;10.17;;;;;;;8.72;75.10;99042.94;4992139;28;20449;-79
2024/01/05 00:34:39;;;;;;;24.50;10.53;;;;;;;8.71;75.08;99034.22;4992273;28;20030;-79
2024/01/05 00:37:04;;;;;;;34.10;11.60;;;;;;;8.68;75.37;99036.91;4992444;28;20034;-79
2024/01/05 00:39:30;;;;;;;27.43;11.73;;;;;;;8.69;74.90;99032.50;4992089;28;20034;-79
2024/01/05 00:41:55;;;;;;;26.73;11.47;;;;;;;8.69;75.00;99027.25;4992275;28;20432;-79
2024/01/05 00:44:21;;;;;;;25.88;11.45;;;;;;;8.70;75.02;99034.25;4991856;28;20502;-78
2024/01/05 00:46:46;;;;;;;29.43;11.67;;;;;;;8.70;74.71;99039.50;4991906;28;20198;-80
2024/01/05 00:49:11;;;;;;;27.67;11.40;;;;;;;8.67;75.28;99039.53;4992139;28;20019;-79
2024/01/05 00:51:37;;;;;;;27.30;12.23;;;;;;;8.66;75.10;99037.81;4991949;28;20022;-79
2024/01/05 00:54:02;;;;;;;30.60;11.73;;;;;;;8.63;75.20;99037.88;4991739;28;20052;-79
2024/01/05 00:56:28;;;;;;;30.42;11.55;;;;;;;8.62;75.39;99044.84;4991669;28;20026;-79
2024/01/05 00:58:53;;;;;;;31.30;11.43;;;;;;;8.62;75.18;99052.72;4991462;28;20046;-78
2024/01/05 01:01:19;;;;;;;29.40;12.00;;;;;;;8.62;75.11;99047.47;4991773;28;20015;-78
2024/01/05 01:03:44;;;;;;;26.42;11.10;;;;;;;8.62;75.25;99047.47;4991592;28;20033;-79
2024/01/05 01:06:10;;;;;;;24.33;10.73;;;;;;;8.62;75.26;99031.72;4991695;28;20037;-78
2024/01/05 01:08:35;;;;;;;22.90;10.53;;;;;;;8.67;75.29;99029.03;4991635;28;20415;-79
2024/01/05 01:11:01;;;;;;;26.87;11.30;;;;;;;8.69;75.18;99032.50;4991578;28;20026;-79
2024/01/05 01:13:27;;;;;;;30.10;12.00;;;;;;;8.71;75.07;99049.09;4991338;28;20078;-79
2024/01/05 01:15:52;;;;;;;31.33;12.48;;;;;;;8.68;75.38;99036.91;4990886;28;20034;-79
2024/01/05 01:18:18;;;;;;;30.87;12.90;;;;;;;8.69;75.19;99037.75;5008185;28;20581;-78
2024/01/05 01:20:43;;;;;;;32.77;12.60;;;;;;;8.64;75.17;99039.59;5011037;28;20049;-79
2024/01/05 01:23:09;;;;;;;26.83;12.57;;;;;;;8.59;75.38;99047.53;4992476;28;20034;-78
2024/01/05 01:25:34;;;;;;;30.92;13.80;;;;;;;8.55;75.61;99049.31;5002353;28;20031;-79
2024/01/05 01:27:59;;;;;;;27.37;13.00;;;;;;;8.54;75.54;99044.97;4991246;28;20509;-79
2024/01/05 01:30:25;;;;;;;32.53;14.50;;;;;;;8.53;75.70;99042.38;4990799;28;20093;-79
2024/01/05 01:32:50;;;;;;;29.77;11.63;;;;;;;8.51;75.73;99045.03;4991167;28;20031;-79
2024/01/05 01:35:16;;;;;;;29.20;11.97;;;;;;;8.52;75.70;99040.66;4991160;28;20444;-79
2024/01/05 01:37:41;;;;;;;29.23;12.27;;;;;;;8.50;75.78;99032.78;4991241;28;20262;-79
2024/01/05 01:40:08;;;;;;;30.43;11.43;;;;;;;8.49;75.76;99031.03;4991013;28;20030;-78
2024/01/05 01:42:34;;;;;;;26.73;11.10;;;;;;;8.48;75.68;99024.06;4990006;28;20030;-78
2024/01/05 01:44:59;;;;;;;27.63;11.47;;;;;;;8.48;75.77;99021.44;4990546;28;20038;-79
2024/01/05 01:47:25;;;;;;;25.47;11.00;;;;;;;8.46;75.54;99012.72;4990966;28;20026;-79
2024/01/05 01:49:50;;;;;;;26.67;11.52;;;;;;;8.43;75.65;98999.66;4990929;28;20028;-79
2024/01/05 01:52:16;;;;;;;24.77;10.37;;;;;;;8.43;75.42;98994.41;4990404;28;20038;-78
2024/01/05 01:54:42;;;;;;;27.17;11.25;;;;;;;8.44;75.61;98993.50;4990848;28;20029;-77
2024/01/05 01:57:08;;;;;;;24.40;10.18;;;;;;;8.42;75.71;98990.91;4991001;28;20030;-78
2024/01/05 01:59:34;;;;;;;24.47;10.73;;;;;;;8.43;75.62;98986.53;4990304;28;20525;-78
2024/01/05 02:01:59;;;;;;;27.27;10.68;;;;;;;8.42;75.55;98984.81;4990721;28;20022;-78
2024/01/05 02:04:26;;;;;;;27.13;10.87;;;;;;;8.41;75.60;98990.94;4990584;28;20034;-78
2024/01/05 02:06:51;;;;;;;26.58;10.23;;;;;;;8.38;75.61;98991.00;4988989;28;20482;-79
2024/01/05 02:09:18;;;;;;;28.87;11.83;;;;;;;8.36;75.86;98993.63;4990361;28;20038;-79
2024/01/05 02:11:43;;;;;;;25.73;10.27;;;;;;;8.36;75.63;98988.38;4990318;28;20029;-78
2024/01/05 02:14:09;;;;;;;24.53;9.97;;;;;;;8.35;75.71;98986.66;4990180;28;20406;-78
2024/01/05 02:16:34;;;;;;;26.10;9.60;;;;;;;8.35;75.77;98988.41;4993536;28;20025;-78
2024/01/05 02:19:00;;;;;;;22.97;10.73;;;;;;;8.32;75.96;98995.44;5010098;28;20034;-78
2024/01/05 02:21:29;;;;;;;28.57;11.10;;;;;;;8.29;76.15;99003.34;5009409;28;20022;-78
2024/01/05 02:23:55;;;;;;;25.73;11.77;;;;;;;8.24;76.34;98989.44;5008581;28;20018;-78
2024/01/05 02:26:21;;;;;;;27.85;11.40;;;;;;;8.19;76.74;98996.50;4997553;28;20038;-78
2024/01/05 02:28:47;;;;;;;27.25;12.15;;;;;;;8.15;76.71;98989.59;4989911;28;20054;-78
2024/01/05 02:31:12;;;;;;;28.93;11.60;;;;;;;8.12;76.76;98994.88;4990021;28;20118;-78
2024/01/05 02:33:38;;;;;;;22.27;11.33;;;;;;;8.14;76.85;99000.97;4990323;28;20030;-78
2024/01/05 02:36:04;;;;;;;30.35;10.93;;;;;;;8.18;77.15;98979.03;4990118;28;20054;-78
2024/01/05 02:38:29;;;;;;;26.10;10.57;;;;;;;8.20;76.82;98982.50;4990043;28;20030;-79
2024/01/05 02:40:58;;;;;;;21.97;10.27;;;;;;;8.22;76.54;98970.25;4990143;28;20022;-78
2024/01/05 02:43:23;;;;;;;28.13;9.90;;;;;;;8.23;76.67;98964.09;4990182;28;20266;-78
2024/01/05 02:45:49;;;;;;;20.38;9.57;;;;;;;8.22;76.64;98958.91;4989578;28;20033;-79
2024/01/05 02:48:14;;;;;;;28.03;9.73;;;;;;;8.21;76.68;98952.78;4990255;28;20026;-78
2024/01/05 02:50:39;;;;;;;21.87;9.63;;;;;;;8.19;76.72;98950.16;4990045;28;20477;-79
2024/01/05 02:53:05;;;;;;;21.00;9.00;;;;;;;8.21;76.89;98947.53;4990337;28;20023;-78
2024/01/05 02:55:30;;;;;;;20.97;8.60;;;;;;;8.22;76.84;98943.16;4994260;28;20038;-78
2024/01/05 02:57:55;;;;;;;19.70;8.27;;;;;;;8.24;76.70;98941.38;4994071;28;20069;-79
2024/01/05 03:00:21;;;;;;;17.37;7.50;;;;;;;8.23;76.79;98942.28;4993809;28;20054;-78
2024/01/05 03:02:46;;;;;;;23.73;8.00;;;;;;;8.24;76.75;98947.47;4994050;28;20030;-78
2024/01/05 03:05:12;;;;;;;21.43;8.27;;;;;;;8.26;76.65;98953.56;4993907;28;20027;-79
2024/01/05 03:07:37;;;;;;;20.33;8.07;;;;;;;8.29;76.74;98948.25;4993631;28;20050;-79
2024/01/05 03:10:03;;;;;;;21.73;8.40;;;;;;;8.29;76.67;98950.03;4976395;28;20061;-79
2024/01/05 03:12:28;;;;;;;20.27;8.63;;;;;;;8.26;76.71;98950.09;4994007;28;20610;-79
2024/01/05 03:14:54;;;;;;;19.57;9.13;;;;;;;8.21;77.00;98944.06;4975823;28;20133;-78
2024/01/05 03:17:19;;;;;;;27.17;11.30;;;;;;;8.18;77.19;98947.56;4985021;28;20076;-79
2024/01/05 03:19:45;;;;;;;25.77;10.50;;;;;;;8.12;77.58;98952.94;4995643;28;20029;-78
2024/01/05 03:22:10;;;;;;;25.33;10.03;;;;;;;8.10;77.54;98946.84;4998244;28;20466;-78
2024/01/05 03:24:35;;;;;;;19.60;8.30;;;;;;;8.08;77.64;98948.59;4982927;28;20569;-77
2024/01/05 03:27:01;;;;;;;24.42;9.48;;;;;;;8.09;77.55;98943.34;4995593;28;20027;-78
2024/01/05 03:29:26;;;;;;;19.90;8.80;;;;;;;8.09;77.93;98940.72;4993231;28;20040;-78
2024/01/05 03:31:52;;;;;;;20.53;8.50;;;;;;;8.13;77.67;98936.31;4993585;28;20014;-79
2024/01/05 03:34:17;;;;;;;23.37;8.87;;;;;;;8.16;77.71;98933.63;4993276;28;20092;-78
2024/01/05 03:36:42;;;;;;;25.03;9.87;;;;;;;8.17;77.23;98928.34;4993545;28;20034;-78
2024/01/05 03:39:08;;;;;;;27.00;9.48;;;;;;;8.16;77.53;98928.38;4989715;28;20022;-78
2024/01/05 03:41:34;;;;;;;27.97;9.77;;;;;;;8.16;77.31;98925.75;4993284;28;20195;-79
2024/01/05 03:44:00;;;;;;;22.73;9.93;;;;;;;8.15;77.78;98918.78;4975490;28;20549;-77
2024/01/05 03:46:26;;;;;;;20.88;9.40;;;;;;;8.12;78.32;98927.56;4993243;28;20030;-78
2024/01/05 03:48:52;;;;;;;21.98;9.60;;;;;;;8.10;78.13;98902.28;4993181;28;20018;-78
2024/01/05 03:51:17;;;;;;;16.87;8.33;;;;;;;8.10;77.86;98903.13;4975763;28;20038;-78
2024/01/05 03:53:43;;;;;;;21.53;9.10;;;;;;;8.11;77.84;98901.38;4993045;28;20024;-79
2024/01/05 03:56:08;;;;;;;21.80;8.73;;;;;;;8.10;78.64;98902.28;4992895;28;20061;-77
2024/01/05 03:58:34;;;;;;;22.23;8.80;;;;;;;8.11;77.78;98904.00;4992763;28;20050;-78
2024/01/05 04:01:03;;;;;;;23.60;8.77;;;;;;;8.11;77.83;98901.38;4992422;28;20109;-78
2024/01/05 04:03:29;;;;;;;20.98;8.52;;;;;;;8.13;77.97;98891.72;4992463;28;20109;-78
2024/01/05 04:05:54;;;;;;;20.83;9.03;;;;;;;8.15;78.05;98895.19;4991546;28;20041;-77
2024/01/05 04:08:20;;;;;;;22.23;9.20;;;;;;;8.13;78.11;98886.47;4993092;28;20269;-77
2024/01/05 04:10:45;;;;;;;22.20;9.07;;;;;;;8.11;78.15;98888.28;4992776;28;20085;-78
2024/01/05 04:13:10;;;;;;;23.10;8.83;;;;;;;8.13;78.04;98899.59;4992665;28;20022;-78
2024/01/05 04:15:37;;;;;;;22.42;8.50;;;;;;;8.16;78.03;98894.28;4992302;28;20518;-78
2024/01/05 04:18:03;;;;;;;22.13;8.97;;;;;;;8.19;78.00;98889.00;5007094;28;20030;-78
2024/01/05 04:20:28;;;;;;;20.95;9.77;;;;;;;8.20;78.12;98888.09;5011522;28;20545;-78
2024/01/05 04:22:53;;;;;;;24.33;9.30;;;;;;;8.18;78.17;98897.75;4992511;28;20415;-79
2024/01/05 04:25:19;;;;;;;20.23;8.63;;;;;;;8.17;78.23;98891.63;5001809;28;20023;-80
2024/01/05 04:27:45;;;;;;;26.07;9.47;;;;;;;8.17;78.14;98894.25;4992462;28;20030;-79
2024/01/05 04:30:11;;;;;;;23.27;9.87;;;;;;;8.14;78.27;98889.06;4992106;28;20340;-79
2024/01/05 04:32:36;;;;;;;20.00;8.50;;;;;;;8.12;78.32;98885.59;4992340;28;20110;-79
2024/01/05 04:35:03;;;;;;;19.30;8.47;;;;;;;8.13;78.41;98883.88;4992286;28;20402;-78
2024/01/05 04:37:28;;;;;;;23.80;8.95;;;;;;;8.13;78.59;98891.72;4992265;28;20022;-79
2024/01/05 04:39:54;;;;;;;20.30;8.73;;;;;;;8.15;78.77;98884.69;4991982;28;20081;-78
2024/01/05 04:42:19;;;;;;;16.17;7.60;;;;;;;8.15;78.44;98884.69;4992106;28;20645;-79
2024/01/05 04:44:45;;;;;;;24.73;8.00;;;;;;;8.17;78.39;98880.28;4990431;28;20029;-78
2024/01/05 04:47:10;;;;;;;20.43;7.90;;;;;;;8.18;78.41;98880.25;4992213;28;20464;-80
2024/01/05 04:49:36;;;;;;;16.58;7.65;;;;;;;8.19;78.60;98875.88;4992248;28;20019;-79
2024/01/05 04:52:04;;;;;;;21.23;8.60;;;;;;;8.18;78.82;98880.25;4991940;28;20030;-79
2024/01/05 04:54:30;;;;;;;18.63;8.10;;;;;;;8.19;78.55;98875.88;4992014;28;20030;-79
2024/01/05 04:56:55;;;;;;;19.93;8.23;;;;;;;8.18;78.59;98879.41;4992008;28;20109;-80
2024/01/05 04:59:22;;;;;;;22.90;8.60;;;;;;;8.15;78.52;98884.69;4991145;28;20114;-79
2024/01/05 05:01:47;;;;;;;20.13;8.88;;;;;;;8.12;78.98;98884.75;4991901;28;20057;-79
2024/01/05 05:04:14;;;;;;;17.10;8.50;;;;;;;8.11;78.80;98883.03;4992034;28;20632;-78
2024/01/05 05:06:39;;;;;;;17.42;8.05;;;;;;;8.09;78.84;98879.56;4991578;28;20030;-78
2024/01/05 05:09:05;;;;;;;16.33;7.60;;;;;;;8.09;79.03;98874.31;4991803;28;20113;-79
2024/01/05 05:11:30;;;;;;;15.30;7.20;;;;;;;8.09;79.10;98879.56;4991787;28;20030;-79
2024/01/05 05:13:56;;;;;;;19.40;7.78;;;;;;;8.10;79.00;98876.06;4991331;28;20025;-78
2024/01/05 05:16:21;;;;;;;19.43;7.83;;;;;;;8.11;79.33;98883.03;4974702;28;20556;-78
2024/01/05 05:18:48;;;;;;;16.50;7.40;;;;;;;8.13;78.46;98878.63;5010915;28;20026;-79
2024/01/05 05:21:16;;;;;;;17.77;7.57;;;;;;;8.12;78.66;98877.75;5004809;28;20082;-79
2024/01/05 05:23:42;;;;;;;22.92;8.90;;;;;;;8.12;78.78;98885.59;4990910;28;20092;-78
2024/01/05 05:26:07;;;;;;;17.83;7.80;;;;;;;8.13;78.79;98892.56;4980665;28;20038;-79
2024/01/05 05:28:33;;;;;;;20.58;8.02;;;;;;;8.13;79.27;98897.81;4991499;28;20072;-78
2024/01/05 05:30:59;;;;;;;18.33;8.33;;;;;;;8.13;78.77;98907.47;4990922;28;20101;-78
2024/01/05 05:33:24;;;;;;;20.50;8.25;;;;;;;8.08;79.35;98898.78;4991284;28;20034;-79
2024/01/05 05:35:49;;;;;;;18.97;8.30;;;;;;;8.05;79.66;98894.47;4991076;28;20410;-79
2024/01/05 05:38:15;;;;;;;18.07;7.50;;;;;;;8.02;79.49;98899.75;4990986;28;20022;-79
2024/01/05 05:40:40;;;;;;;16.80;7.57;;;;;;;7.99;80.03;98905.06;4990999;28;20030;-78
2024/01/05 05:43:06;;;;;;;18.33;7.88;;;;;;;7.98;80.02;98904.19;4991111;28;20030;-78
2024/01/05 05:45:31;;;;;;;18.27;7.47;;;;;;;7.95;79.79;98912.09;4990643;28;20030;-79
2024/01/05 05:47:56;;;;;;;15.47;7.03;;;;;;;7.93;80.20;98900.78;4973414;28;20097;-78
2024/01/05 05:50:22;;;;;;;18.87;7.27;;;;;;;7.93;80.31;98907.75;4973500;28;20035;-78
2024/01/05 05:52:50;;;;;;;18.03;7.80;;;;;;;7.92;80.10;98901.66;5006519;28;20033;-79
2024/01/05 05:55:15;;;;;;;18.37;7.30;;;;;;;7.92;80.25;98901.66;5000785;28;21551;-79
2024/01/05 05:57:41;;;;;;;17.40;7.20;;;;;;;7.91;80.53;98897.31;4990901;28;20026;-78
2024/01/05 06:00:07;;;;;;;14.93;6.80;;;;;;;7.89;80.09;98894.69;4990501;28;20357;-78
2024/01/05 06:02:32;;;;;;;20.92;7.60;;;;;;;7.90;80.71;98896.44;4990877;28;20033;-80
2024/01/05 06:04:58;;;;;;;18.87;7.10;;;;;;;7.90;80.41;98885.09;4990943;28;20031;-78
2024/01/05 06:07:24;;;;;;;17.73;6.83;;;;;;;7.91;80.54;98881.59;4990819;28;20034;-78
2024/01/05 06:09:49;;;;;;;18.65;7.18;;;;;;;7.94;80.54;98878.91;4990610;28;20034;-79
2024/01/05 06:12:15;;;;;;;17.63;7.28;;;;;;;7.96;80.12;98877.13;4990372;28;20022;-79
2024/01/05 06:14:40;;;;;;;20.00;7.43;;;;;;;7.98;80.38;98877.97;4972705;28;20030;-80
2024/01/05 06:17:06;;;;;;;17.53;7.47;;;;;;;7.98;80.12;98877.13;4997563;28;20037;-80
2024/01/05 06:19:31;;;;;;;14.13;7.23;;;;;;;8.00;79.85;98891.06;5010378;28;20045;-79
2024/01/05 06:21:59;;;;;;;19.17;7.63;;;;;;;7.97;79.84;98878.84;5009481;28;20533;-78
2024/01/05 06:24:25;;;;;;;16.55;7.57;;;;;;;7.98;80.12;98891.06;4999776;28;20021;-78
2024/01/05 06:26:51;;;;;;;18.70;7.60;;;;;;;7.99;79.89;98895.41;4993624;28;20419;-79
2024/01/05 06:29:17;;;;;;;17.10;6.83;;;;;;;8.00;79.95;98891.91;4971589;28;20561;-79
2024/01/05 06:31:42;;;;;;;20.65;7.68;;;;;;;8.03;80.26;98893.63;4990342;28;20127;-78
2024/01/05 06:34:07;;;;;;;17.67;7.80;;;;;;;8.02;80.55;98900.63;4989956;28;20398;-78
2024/01/05 06:36:33;;;;;;;25.53;9.80;;;;;;;7.99;80.42;98895.41;4990318;28;20023;-78
2024/01/05 06:38:58;;;;;;;43.93;16.07;;;;;;;7.98;80.70;98898.94;4990184;28;20018;-78
2024/01/05 06:41:24;;;;;;;29.25;10.82;;;;;;;7.98;80.81;98898.94;4990092;28;20110;-79
2024/01/05 06:43:52;;;;;;;21.73;9.00;;;;;;;7.97;80.85;98897.19;4989819;28;20045;-78
2024/01/05 06:46:18;;;;;;;23.20;9.52;;;;;;;8.00;80.85;98897.16;4989821;28;20026;-78
2024/01/05 06:48:43;;;;;;;19.03;8.80;;;;;;;8.01;80.67;98904.13;4989986;28;20134;-79
2024/01/05 06:51:09;;;;;;;28.40;11.20;;;;;;;8.03;80.73;98904.97;4989511;28;20034;-78
2024/01/05 06:53:34;;;;;;;28.43;11.40;;;;;;;8.03;80.78;98902.34;4989703;28;20034;-79
2024/01/05 06:56:00;;;;;;;23.43;10.80;;;;;;;8.03;80.83;98912.84;4989847;28;20445;-78
2024/01/05 06:58:27;;;;;;;18.93;8.73;;;;;;;8.04;81.17;98909.31;4989729;28;20053;-78
2024/01/05 07:00:52;;;;;;;21.90;8.50;;;;;;;8.07;81.28;98910.16;4989643;28;20030;-79
2024/01/05 07:03:18;;;;;;;20.60;7.77;;;;;;;8.07;81.77;98912.78;5004088;28;20034;-78
2024/01/05 07:05:43;;;;;;;22.58;8.73;;;;;;;8.05;81.42;98904.97;5009256;28;20099;-78
2024/01/05 07:08:09;;;;;;;21.63;8.40;;;;;;;8.03;81.63;98912.84;5009197;28;20032;-78
2024/01/05 07:10:35;;;;;;;21.95;7.65;;;;;;;8.06;81.54;98917.16;5009351;28;20021;-79
2024/01/05 07:13:00;;;;;;;19.57;6.83;;;;;;;8.09;81.36;98932.00;5009295;28;20037;-78
2024/01/05 07:15:25;;;;;;;17.83;6.23;;;;;;;8.12;81.62;98922.31;5009182;28;20034;-78
2024/01/05 07:17:51;;;;;;;14.23;6.23;;;;;;;8.12;81.35;98926.72;5009314;28;20096;-78
2024/01/05 07:20:16;;;;;;;14.17;5.10;;;;;;;8.13;82.33;98929.28;4996704;28;20041;-78
2024/01/05 07:22:41;;;;;;;10.50;3.88;;;;;;;8.14;82.06;98924.94;4989916;28;20034;-79
2024/01/05 07:25:10;;;;;;;13.50;3.77;;;;;;;8.15;82.60;98931.91;4998756;28;20176;-80
2024/01/05 07:27:36;;;;;;;9.63;3.55;;;;;;;8.21;82.99;98931.78;4989630;28;20617;-80
2024/01/05 07:30:03;;;;;;;12.03;2.90;;;;;;;8.20;83.33;98930.06;4990213;28;20030;-79
2024/01/05 07:32:29;;;;;;;10.00;2.15;;;;;;;8.22;83.07;98930.91;4986819;28;20035;-80
2024/01/05 07:34:54;;;;;;;5.33;1.90;;;;;;;8.23;82.84;98930.00;4997662;28;20030;-79
2024/01/05 07:37:21;;;;;;;8.32;1.77;;;;;;;8.24;83.93;98925.66;4993171;28;20037;-78
2024/01/05 07:39:47;;;;;;;6.90;1.87;;;;;;;8.25;83.33;98925.59;5005935;28;20033;-79
2024/01/05 07:42:12;;;;;;;4.70;1.40;;;;;;;8.23;83.54;98923.91;5010722;28;20119;-79
2024/01/05 07:44:38;;;;;;;8.57;2.37;;;;;;;8.22;83.55;98924.81;4997870;28;20042;-79
2024/01/05 07:47:04;;;;;;;8.90;2.67;;;;;;;8.21;83.41;98920.44;4992673;28;20038;-79
2024/01/05 07:49:29;;;;;;;5.28;1.40;;;;;;;8.21;83.32;98925.69;5004333;28;20026;-80
2024/01/05 07:51:55;;;;;;;6.23;1.13;;;;;;;8.21;83.21;98920.44;4998214;28;20057;-79
2024/01/05 07:54:20;;;;;;;6.03;1.30;;;;;;;8.22;82.98;98916.94;4998725;28;20109;-80
2024/01/05 07:56:48;;;;;;;5.73;1.70;;;;;;;8.23;83.08;98923.91;4982722;28;20091;-79
2024/01/05 07:59:15;;;;;;;8.38;2.38;;;;;;;8.24;82.86;98926.50;4994723;28;20046;-79
2024/01/05 08:01:41;;;;;;;5.87;1.57;;;;;;;8.23;83.01;98926.53;4992645;28;20035;-79
2024/01/05 08:04:07;;;;;;;8.85;1.75;;;;;;;8.22;82.95;98938.78;4992614;28;20026;-79
2024/01/05 08:06:33;;;;;;;4.85;1.45;;;;;;;8.25;82.98;98953.59;4995298;28;20551;-79
2024/01/05 08:08:58;;;;;;;5.30;0.77;;;;;;;8.23;83.02;98940.50;4992603;28;20026;-80
2024/01/05 08:11:23;;;;;;;8.43;0.90;;;;;;;8.26;83.10;98947.47;4991130;28;20058;-79
2024/01/05 08:13:50;;;;;;;4.00;0.60;;;;;;;8.26;83.01;98950.09;4992901;28;20031;-79
2024/01/05 08:16:15;;;;;;;4.90;0.80;;;;;;;8.25;82.75;98951.81;4994341;28;20022;-79
2024/01/05 08:18:41;;;;;;;6.73;1.20;;;;;;;8.27;83.19;98951.81;4997659;28;20043;-79
2024/01/05 08:21:07;;;;;;;6.65;1.48;;;;;;;8.27;82.72;98960.53;4993424;28;20030;-78
2024/01/05 08:23:33;;;;;;;5.18;0.90;;;;;;;8.28;82.98;98964.03;4990285;28;20023;-78
2024/01/05 08:25:58;;;;;;;5.80;0.80;;;;;;;8.29;82.97;98961.38;4996657;28;20040;-78
2024/01/05 08:28:25;;;;;;;6.87;1.10;;;;;;;8.30;83.17;98963.09;5008697;28;20273;-78
2024/01/05 08:30:51;;;;;;;4.45;0.90;;;;;;;8.32;82.94;98971.84;4997309;28;20031;-79
2024/01/05 08:33:16;;;;;;;5.87;0.90;;;;;;;8.34;82.78;98974.44;4999829;28;20041;-79
2024/01/05 08:35:42;;;;;;;5.87;1.00;;;;;;;8.37;82.75;98973.53;4994616;28;20158;-80
2024/01/05 08:38:07;;;;;;;6.03;1.13;;;;;;;8.38;82.56;98972.63;4991459;28;20129;-79
2024/01/05 08:40:33;;;;;;;6.63;1.30;;;;;;;8.39;83.14;98969.97;4991577;28;20034;-80
2024/01/05 08:42:58;;;;;;;7.80;1.50;;;;;;;8.40;83.06;98979.56;4990293;28;20049;-80
2024/01/05 08:45:25;;;;;;;5.28;1.50;;;;;;;8.42;82.66;98979.56;4994462;28;20116;-81
2024/01/05 08:47:50;;;;;;;7.28;1.60;;;;;;;8.44;82.66;98972.53;5006110;28;20076;-81
2024/01/05 08:50:19;;;;;;;6.30;2.03;;;;;;;8.48;82.40;98984.69;4999691;28;20030;-80
2024/01/05 08:52:46;;;;;;;6.65;2.20;;;;;;;8.50;82.45;98982.94;5003305;28;20034;-79
2024/01/05 08:55:15;;;;;;;6.57;2.35;;;;;;;8.50;82.64;98980.31;5000504;28;20040;-80
2024/01/05 08:57:40;;;;;;;5.80;1.53;;;;;;;8.49;82.83;98986.44;5005148;28;20034;-79
2024/01/05 09:00:09;;;;;;;7.03;1.75;;;;;;;8.50;82.84;98988.19;4991340;28;20042;-77
2024/01/05 09:02:36;;;;;;;5.63;1.60;;;;;;;8.51;82.77;98987.28;4994757;28;20061;-78
2024/01/05 09:05:04;;;;;;;8.05;2.10;;;;;;;8.54;82.73;98992.50;5006938;28;20533;-78
2024/01/05 09:07:33;;;;;;;9.35;2.25;;;;;;;8.54;82.85;98995.13;4997494;28;20070;-79
2024/01/05 09:09:58;;;;;;;10.30;2.28;;;;;;;8.55;82.86;98994.22;5008404;28;20030;-77
2024/01/05 09:12:24;;;;;;;6.70;1.90;;;;;;;8.55;82.84;99004.72;4998589;28;20042;-78
2024/01/05 09:14:49;;;;;;;6.80;1.92;;;;;;;8.55;83.04;99003.88;4993633;28;20459;-78
2024/01/05 09:17:15;;;;;;;9.27;1.80;;;;;;;8.55;83.05;99002.09;4997901;28;20026;-79
2024/01/05 09:19:40;;;;;;;8.30;1.50;;;;;;;8.55;83.03;98994.22;4990949;28;20105;-79
2024/01/05 09:22:07;;;;;;;4.55;1.48;;;;;;;8.58;82.99;98999.44;4991205;28;20041;-79
2024/01/05 09:24:33;;;;;;;5.37;1.30;;;;;;;8.60;83.32;98997.66;4998983;28;20442;-77
2024/01/05 09:26:58;;;;;;;5.50;1.20;;;;;;;8.65;83.22;98997.56;4990733;28;20041;-79
2024/01/05 09:29:24;;;;;;;6.60;1.20;;;;;;;8.68;83.05;98996.66;5001569;28;20029;-77
2024/01/05 09:31:50;;;;;;;5.47;1.50;;;;;;;8.68;83.12;99001.91;4997814;28;20538;-79
2024/01/05 09:34:17;;;;;;;4.53;1.02;;;;;;;8.72;83.01;99000.97;4993681;28;20404;-79
2024/01/05 09:36:42;;;;;;;4.45;0.75;;;;;;;8.73;83.13;99011.44;5001043;28;20030;-77
2024/01/05 09:39:09;;;;;;;3.70;0.77;;;;;;;8.75;82.65;99008.78;4998618;28;20088;-78
2024/01/05 09:41:35;;;;;;;3.53;0.50;;;;;;;8.74;82.50;98999.16;4995804;28;20030;-81
2024/01/05 09:44:03;;;;;;;4.00;0.43;;;;;;;8.73;82.56;99007.94;4992832;28;20135;-80
2024/01/05 09:46:29;;;;;;;3.85;0.40;;;;;;;8.70;82.64;99008.88;5002356;28;20520;-84
2024/01/05 09:48:57;;;;;;;6.37;0.80;;;;;;;8.69;82.86;99006.25;5002778;28;20061;-82
2024/01/05 09:51:25;;;;;;;4.97;0.50;;;;;;;8.69;82.99;99009.78;5001131;28;20026;-85
2024/01/05 09:53:51;;;;;;;3.67;0.50;;;;;;;8.70;82.95;99008.00;4992310;28;20697;-78
2024/01/05 09:56:16;;;;;;;6.30;1.00;;;;;;;8.71;83.08;99009.72;5005654;28;20026;-77
2024/01/05 09:58:43;;;;;;;3.75;0.70;;;;;;;8.71;82.75;99010.59;4999506;28;20049;-80
2024/01/05 10:01:23;;;;;;;3.53;0.60;;;;;;;8.73;82.81;99011.44;4984793;28;20405;-80
2024/01/05 10:03:54;;;;;;;4.53;0.53;;;;;;;8.72;83.10;99022.84;5003382;28;20580;-81
2024/01/05 10:06:20;;;;;;;4.55;0.80;;;;;;;8.69;83.07;99020.28;5008122;28;20561;-82
2024/01/05 10:08:45;;;;;;;3.37;0.57;;;;;;;8.70;82.98;99023.75;5000740;28;20060;-83
2024/01/05 10:11:11;;;;;;;3.70;0.88;;;;;;;8.70;83.00;99024.63;4995436;28;20019;-80
2024/01/05 10:13:37;;;;;;;2.93;0.70;;;;;;;8.72;83.06;99016.69;4989947;28;20633;-83
2024/01/05 10:16:05;;;;;;;3.95;0.57;;;;;;;8.73;83.26;99018.44;4999105;28;20018;-81
2024/01/05 10:18:30;;;;;;;5.47;0.70;;;;;;;8.75;83.25;99021.91;4999505;28;20129;-79
2024/01/05 10:21:07;;;;;;;6.07;1.27;;;;;;;8.76;83.19;99026.25;4992366;28;20037;-81
2024/01/05 10:23:40;;;;;;;4.07;1.08;;;;;;;8.75;83.32;99024.53;4991824;28;20493;-80
2024/01/05 10:26:18;;;;;;;7.27;1.00;;;;;;;8.74;83.25;99015.81;4997013;28;20038;-81
2024/01/05 10:28:44;;;;;;;5.95;0.90;;;;;;;8.75;83.20;99020.16;4989351;28;20038;-81
2024/01/05 10:31:19;;;;;;;6.72;0.80;;;;;;;8.75;83.58;99021.91;5003008;28;20184;-82
2024/01/05 10:34:02;;;;;;;4.95;0.90;;;;;;;8.73;83.86;99018.44;4990769;28;20468;-81
2024/01/05 10:36:27;;;;;;;4.87;1.00;;;;;;;8.74;83.37;99012.28;4990671;28;20644;-79
2024/01/05 10:38:53;;;;;;;4.00;0.80;;;;;;;8.75;83.28;99014.03;4985671;28;20066;-82
2024/01/05 10:41:23;;;;;;;4.43;1.00;;;;;;;8.77;83.42;99007.00;4991377;28;20281;-80
2024/01/05 10:43:49;;;;;;;4.65;1.15;;;;;;;8.79;83.04;99013.06;4995970;28;20025;-81
2024/01/05 10:46:17;;;;;;;9.50;2.25;;;;;;;8.81;83.38;99003.44;4997767;28;20062;-79
2024/01/05 10:48:43;;;;;;;5.37;1.40;;;;;;;8.82;83.32;99002.56;4994856;28;20580;-81
2024/01/05 10:51:12;;;;;;;4.60;0.80;;;;;;;8.84;83.31;99003.38;4990606;28;20030;-81
2024/01/05 10:53:38;;;;;;;5.55;1.30;;;;;;;8.86;83.37;99009.47;4993719;28;20100;-78
2024/01/05 10:56:06;;;;;;;4.37;0.70;;;;;;;8.90;82.99;99008.53;4994900;28;20038;-81
2024/01/05 10:58:32;;;;;;;3.47;0.60;;;;;;;8.94;83.00;99005.84;4996246;28;20126;-78
2024/01/05 11:01:01;;;;;;;4.35;0.80;;;;;;;8.96;83.24;99006.66;4991548;28;20026;-78
2024/01/05 11:03:35;;;;;;;5.28;0.70;;;;;;;8.98;83.09;99004.88;5003239;28;20034;-81
2024/01/05 11:06:04;;;;;;;5.40;0.70;;;;;;;8.97;83.01;99004.03;4998139;28;20077;-79
2024/01/05 11:08:51;;;;;;;4.90;0.73;;;;;;;8.96;83.27;99004.94;4996743;28;20034;-78
2024/01/05 11:12:14;;;;;;;5.55;0.70;;;;;;;8.95;82.90;98991.81;4991842;28;20080;-78
2024/01/05 11:15:22;;;;;;;4.55;0.60;;;;;;;8.92;82.97;98994.50;4959918;28;20063;-77
2024/01/05 11:18:09;;;;;;;4.28;0.60;;;;;;;8.88;82.88;98994.56;5006016;28;20023;-80
2024/01/05 11:20:43;;;;;;;5.22;0.80;;;;;;;8.88;82.94;98986.69;4987758;28;20073;-77
2024/01/05 11:23:10;;;;;;;8.03;1.60;;;;;;;8.89;82.98;98987.53;4993191;28;20041;-78
2024/01/05 11:25:35;;;;;;;7.15;1.17;;;;;;;8.94;82.83;98977.84;5001064;28;20030;-78
2024/01/05 11:28:02;;;;;;;5.23;0.70;;;;;;;8.96;82.90;98978.69;4993857;28;20036;-82
2024/01/05 11:30:44;;;;;;;4.67;0.63;;;;;;;8.98;82.81;98970.75;5005605;28;20937;-80